createdAt,value
2022-11-09T00:00:08.692Z,9.10
2022-11-09T00:02:36.728Z,9.10
2022-11-09T00:05:06.689Z,9.10
2022-11-09T00:07:33.495Z,9.10
2022-11-09T00:10:00.524Z,9.10
2022-11-09T00:12:27.377Z,9.10
2022-11-09T00:14:54.216Z,9.00
2022-11-09T00:17:21.058Z,9.00
2022-11-09T00:19:47.862Z,9.00
2022-11-09T00:22:14.706Z,9.00
2022-11-09T00:24:41.520Z,9.00
2022-11-09T00:27:08.380Z,9.00
2022-11-09T00:29:35.177Z,9.00
2022-11-09T00:32:01.997Z,9.00
2022-11-09T00:34:28.920Z,9.10
2022-11-09T00:36:55.747Z,9.00
2022-11-09T00:39:22.547Z,8.90
2022-11-09T00:41:49.348Z,8.90
2022-11-09T00:44:16.260Z,8.90
2022-11-09T00:46:43.051Z,8.90
2022-11-09T00:49:09.851Z,8.90
2022-11-09T00:51:36.763Z,8.90
2022-11-09T00:54:03.778Z,8.90
2022-11-09T00:56:30.556Z,8.90
2022-11-09T00:58:57.408Z,8.90
2022-11-09T01:01:24.674Z,8.90
2022-11-09T01:03:52.077Z,9.00
2022-11-09T01:06:21.924Z,9.00
2022-11-09T01:08:49.223Z,8.90
2022-11-09T01:11:17.616Z,8.90
2022-11-09T01:13:45.262Z,8.90
2022-11-09T01:16:15.566Z,9.00
2022-11-09T01:18:42.633Z,9.00
2022-11-09T01:21:13.446Z,9.00
2022-11-09T01:23:40.838Z,9.00
2022-11-09T01:26:10.182Z,9.00
2022-11-09T01:28:37.590Z,9.00
2022-11-09T01:31:07.020Z,8.90
2022-11-09T01:33:34.451Z,8.90
2022-11-09T01:36:06.339Z,8.90
2022-11-09T01:38:33.646Z,9.00
2022-11-09T01:41:00.431Z,9.00
2022-11-09T01:43:27.289Z,9.00
2022-11-09T01:46:11.926Z,9.00
2022-11-09T01:48:56.036Z,9.00
2022-11-09T01:51:31.141Z,8.90
2022-11-09T01:54:13.055Z,8.90
2022-11-09T01:56:40.678Z,8.80
2022-11-09T01:59:13.965Z,8.70
2022-11-09T02:01:42.966Z,8.70
2022-11-09T02:04:28.929Z,8.70
2022-11-09T02:06:58.568Z,8.70
2022-11-09T02:09:28.220Z,8.70
2022-11-09T02:11:55.465Z,8.70
2022-11-09T02:14:25.435Z,8.70
2022-11-09T02:16:52.479Z,8.70
2022-11-09T02:19:19.346Z,8.70
2022-11-09T02:21:46.256Z,8.70
2022-11-09T02:24:13.179Z,8.80
2022-11-09T02:26:45.307Z,8.70
2022-11-09T02:29:17.354Z,8.70
2022-11-09T02:31:49.168Z,8.80
2022-11-09T02:34:19.782Z,8.80
2022-11-09T02:36:46.779Z,8.80
2022-11-09T02:39:16.661Z,8.80
2022-11-09T02:41:50.445Z,8.80
2022-11-09T02:44:19.741Z,8.80
2022-11-09T02:46:47.231Z,8.80
2022-11-09T02:49:14.184Z,8.80
2022-11-09T02:51:41.018Z,8.80
2022-11-09T02:54:07.862Z,8.70
2022-11-09T02:56:35.039Z,8.80
2022-11-09T02:59:03.421Z,8.80
2022-11-09T03:01:30.690Z,8.90
2022-11-09T03:03:57.600Z,8.90
2022-11-09T03:06:34.560Z,8.80
2022-11-09T03:09:03.700Z,8.80
2022-11-09T03:11:30.556Z,8.90
2022-11-09T03:13:57.641Z,8.90
2022-11-09T03:16:24.856Z,8.90
2022-11-09T03:18:52.583Z,8.90
2022-11-09T03:21:19.512Z,8.80
2022-11-09T03:23:46.787Z,8.80
2022-11-09T03:26:13.585Z,8.80
2022-11-09T03:28:41.241Z,8.80
2022-11-09T03:31:08.322Z,8.80
2022-11-09T03:33:35.661Z,8.80
2022-11-09T03:36:03.004Z,8.80
2022-11-09T03:38:29.831Z,8.80
2022-11-09T03:40:58.723Z,8.80
2022-11-09T03:43:25.602Z,8.90
2022-11-09T03:45:52.423Z,8.90
2022-11-09T03:48:19.371Z,8.90
2022-11-09T03:50:46.430Z,8.80
2022-11-09T03:53:14.035Z,8.80
2022-11-09T03:55:41.049Z,8.80
2022-11-09T03:58:10.003Z,8.90
2022-11-09T04:00:36.826Z,8.80
2022-11-09T04:03:03.728Z,8.90
2022-11-09T04:05:30.905Z,8.80
2022-11-09T04:07:58.500Z,8.70
2022-11-09T04:10:26.725Z,8.70
2022-11-09T04:12:53.767Z,8.70
2022-11-09T04:15:20.706Z,8.70
2022-11-09T04:17:58.695Z,8.70
2022-11-09T04:20:26.944Z,8.70
2022-11-09T04:23:02.274Z,8.80
2022-11-09T04:25:33.249Z,8.80
2022-11-09T04:28:00.973Z,8.80
2022-11-09T04:30:31.010Z,8.90
2022-11-09T04:32:59.243Z,8.90
2022-11-09T04:35:27.861Z,8.80
2022-11-09T04:37:58.273Z,8.80
2022-11-09T04:40:27.071Z,8.90
2022-11-09T04:42:53.886Z,8.90
2022-11-09T04:45:21.789Z,8.80
2022-11-09T04:47:48.958Z,8.90
2022-11-09T04:50:16.052Z,8.80
2022-11-09T04:52:42.911Z,8.80
2022-11-09T04:55:09.858Z,8.80
2022-11-09T04:57:36.671Z,8.70
2022-11-09T05:00:04.297Z,8.70
2022-11-09T05:02:31.226Z,8.80
2022-11-09T05:04:58.035Z,8.70
2022-11-09T05:07:24.842Z,8.70
2022-11-09T05:09:51.675Z,8.70
2022-11-09T05:12:18.596Z,8.70
2022-11-09T05:14:45.378Z,8.70
2022-11-09T05:17:12.180Z,8.70
2022-11-09T05:19:38.967Z,8.70
2022-11-09T05:22:24.319Z,8.70
2022-11-09T05:24:51.990Z,8.70
2022-11-09T05:27:18.862Z,8.70
2022-11-09T05:29:45.761Z,8.70
2022-11-09T05:32:12.649Z,8.70
2022-11-09T05:34:39.459Z,8.70
2022-11-09T05:37:06.270Z,8.60
2022-11-09T05:39:33.311Z,8.70
2022-11-09T05:42:00.111Z,8.60
2022-11-09T05:44:26.953Z,8.60
2022-11-09T05:46:53.769Z,8.60
2022-11-09T05:49:20.622Z,8.60
2022-11-09T05:51:47.496Z,8.60
2022-11-09T05:54:14.352Z,8.60
2022-11-09T05:56:41.195Z,8.60
2022-11-09T05:59:09.063Z,8.50
2022-11-09T06:01:35.859Z,8.50
2022-11-09T06:04:02.797Z,8.50
2022-11-09T06:06:30.115Z,8.40
2022-11-09T06:08:57.068Z,8.40
2022-11-09T06:11:24.631Z,8.40
2022-11-09T06:13:52.673Z,8.30
2022-11-09T06:16:19.532Z,8.30
2022-11-09T06:18:46.411Z,8.30
2022-11-09T06:21:13.265Z,8.30
2022-11-09T06:23:40.101Z,8.30
2022-11-09T06:26:10.045Z,8.30
2022-11-09T06:28:38.490Z,8.30
2022-11-09T06:31:06.885Z,8.30
2022-11-09T06:33:35.259Z,8.30
2022-11-09T06:36:02.835Z,8.30
2022-11-09T06:38:30.071Z,8.30
2022-11-09T06:40:59.133Z,8.40
2022-11-09T06:43:26.948Z,8.40
2022-11-09T06:45:54.260Z,8.50
2022-11-09T06:48:21.987Z,8.50
2022-11-09T06:50:49.237Z,8.50
2022-11-09T06:53:18.124Z,8.50
2022-11-09T06:55:50.338Z,8.50
2022-11-09T06:58:18.124Z,8.50
2022-11-09T07:00:45.203Z,8.60
2022-11-09T07:03:16.550Z,8.60
2022-11-09T07:05:44.032Z,8.60
2022-11-09T07:08:11.784Z,8.60
2022-11-09T07:10:38.737Z,8.60
2022-11-09T07:13:06.775Z,8.50
2022-11-09T07:15:35.264Z,8.60
2022-11-09T07:18:05.383Z,8.60
2022-11-09T07:20:32.537Z,8.60
2022-11-09T07:22:59.361Z,8.60
2022-11-09T07:25:27.407Z,8.70
2022-11-09T07:27:54.496Z,8.80
2022-11-09T07:30:21.391Z,8.80
2022-11-09T07:35:35.069Z,8.80
2022-11-09T07:38:02.150Z,8.90
2022-11-09T07:40:29.671Z,8.90
2022-11-09T07:43:04.851Z,9.00
2022-11-09T07:45:32.839Z,9.00
2022-11-09T07:48:03.375Z,9.10
2022-11-09T07:50:32.014Z,9.10
2022-11-09T07:53:00.204Z,9.10
2022-11-09T07:55:28.702Z,9.10
2022-11-09T07:58:00.022Z,9.20
2022-11-09T08:00:29.431Z,9.20
2022-11-09T08:02:56.710Z,9.20
2022-11-09T08:05:24.199Z,9.30
2022-11-09T08:08:02.856Z,9.20
2022-11-09T08:10:31.641Z,9.30
2022-11-09T08:13:01.014Z,9.30
2022-11-09T08:15:28.593Z,9.40
2022-11-09T08:18:00.221Z,9.50
2022-11-09T08:20:27.273Z,9.50
2022-11-09T08:22:54.126Z,9.50
2022-11-09T08:25:20.920Z,9.50
2022-11-09T08:27:48.097Z,9.50
2022-11-09T08:30:20.929Z,9.50
2022-11-09T08:32:49.394Z,9.50
2022-11-09T08:35:20.329Z,9.60
2022-11-09T08:37:50.074Z,9.60
2022-11-09T08:40:19.651Z,9.60
2022-11-09T08:42:46.817Z,9.60
2022-11-09T08:45:14.072Z,9.60
2022-11-09T08:47:41.683Z,9.60
2022-11-09T08:50:10.196Z,9.70
2022-11-09T08:52:37.448Z,9.70
2022-11-09T08:55:05.895Z,9.70
2022-11-09T08:57:33.378Z,9.70
2022-11-09T09:00:00.213Z,9.70
2022-11-09T09:02:27.063Z,9.80
2022-11-09T09:04:53.844Z,9.80
2022-11-09T09:07:20.804Z,9.80
2022-11-09T09:09:47.722Z,9.80
2022-11-09T09:12:14.652Z,9.80
2022-11-09T09:14:41.440Z,9.80
2022-11-09T09:17:08.257Z,9.80
2022-11-09T09:19:35.173Z,9.90
2022-11-09T09:22:02.099Z,9.90
2022-11-09T09:24:29.119Z,9.90
2022-11-09T09:26:56.098Z,9.90
2022-11-09T09:29:23.009Z,10.00
2022-11-09T09:31:51.081Z,10.00
2022-11-09T09:34:18.095Z,10.10
2022-11-09T09:36:48.031Z,10.10
2022-11-09T09:39:15.626Z,10.10
2022-11-09T09:41:54.789Z,10.10
2022-11-09T09:44:33.575Z,10.10
2022-11-09T09:47:28.044Z,10.20
2022-11-09T09:49:59.517Z,10.30
2022-11-09T09:52:26.318Z,10.20
2022-11-09T09:55:30.104Z,10.20
2022-11-09T09:58:04.754Z,10.30
2022-11-09T10:00:35.765Z,10.30
2022-11-09T10:03:02.658Z,10.30
2022-11-09T10:05:45.949Z,10.30
2022-11-09T10:08:49.852Z,10.30
2022-11-09T10:11:16.626Z,10.30
2022-11-09T10:14:11.026Z,10.30
2022-11-09T10:16:55.457Z,10.30
2022-11-09T10:19:56.200Z,10.30
2022-11-09T10:22:34.824Z,10.30
2022-11-09T10:25:23.538Z,10.30
2022-11-09T10:28:01.101Z,10.40
2022-11-09T10:30:29.467Z,10.40
2022-11-09T10:33:18.509Z,10.40
2022-11-09T10:35:56.341Z,10.40
2022-11-09T10:38:31.080Z,10.40
2022-11-09T10:41:04.882Z,10.50
2022-11-09T10:43:31.725Z,10.40
2022-11-09T10:46:04.847Z,10.40
2022-11-09T10:48:37.172Z,10.40
2022-11-09T10:51:05.146Z,10.40
2022-11-09T10:53:33.624Z,10.40
2022-11-09T10:56:20.752Z,10.40
2022-11-09T10:58:52.141Z,10.40
2022-11-09T11:01:26.842Z,10.30
2022-11-09T11:03:56.032Z,10.30
2022-11-09T11:06:22.804Z,10.40
2022-11-09T11:09:12.365Z,10.60
2022-11-09T11:11:40.284Z,10.40
2022-11-09T11:14:23.019Z,10.30
2022-11-09T11:16:53.077Z,10.30
2022-11-09T11:19:37.436Z,10.30
2022-11-09T11:22:19.157Z,10.20
2022-11-09T11:24:53.880Z,10.20
2022-11-09T11:27:43.111Z,10.30
2022-11-09T11:30:35.230Z,10.30
2022-11-09T11:33:06.466Z,10.30
2022-11-09T11:35:45.529Z,10.40
2022-11-09T11:38:37.118Z,10.30
2022-11-09T11:41:25.603Z,10.30
2022-11-09T11:44:13.952Z,10.30
2022-11-09T11:47:09.677Z,10.30
2022-11-09T11:49:45.285Z,10.30
2022-11-09T11:52:23.416Z,10.30
2022-11-09T11:55:09.007Z,10.30
2022-11-09T11:57:48.947Z,10.30
2022-11-09T12:00:22.398Z,10.40
2022-11-09T12:03:23.626Z,10.40
2022-11-09T12:06:09.162Z,10.40
2022-11-09T12:08:54.010Z,10.40
2022-11-09T12:11:42.521Z,10.40
2022-11-09T12:14:17.273Z,10.40
2022-11-09T12:17:08.608Z,10.50
2022-11-09T12:19:54.225Z,10.50
2022-11-09T12:22:45.134Z,10.50
2022-11-09T12:25:45.385Z,10.40
2022-11-09T12:29:13.881Z,10.40
2022-11-09T12:32:04.867Z,10.40
2022-11-09T12:34:44.477Z,10.50
2022-11-09T12:37:18.881Z,10.40
2022-11-09T12:39:58.728Z,10.40
2022-11-09T12:42:37.759Z,10.40
2022-11-09T12:45:24.918Z,10.30
2022-11-09T12:47:54.763Z,10.30
2022-11-09T12:50:25.542Z,10.30
2022-11-09T12:52:53.543Z,10.40
2022-11-09T12:55:29.236Z,10.40
2022-11-09T12:58:00.687Z,10.40
2022-11-09T13:00:34.159Z,10.40
2022-11-09T13:03:04.777Z,10.40
2022-11-09T13:05:38.926Z,10.40
2022-11-09T13:08:14.168Z,10.40
2022-11-09T13:10:41.521Z,10.30
2022-11-09T13:13:11.209Z,10.30
2022-11-09T13:16:05.596Z,10.30
2022-11-09T13:18:35.440Z,10.30
2022-11-09T13:21:21.368Z,10.30
2022-11-09T13:24:08.002Z,10.30
2022-11-09T13:26:36.694Z,10.30
2022-11-09T13:29:16.266Z,10.30
2022-11-09T13:32:01.638Z,10.30
2022-11-09T13:34:47.146Z,10.30
2022-11-09T13:37:32.433Z,10.30
2022-11-09T13:39:59.308Z,10.30
2022-11-09T13:42:30.274Z,10.30
2022-11-09T13:45:24.877Z,10.30
2022-11-09T13:47:52.825Z,10.40
2022-11-09T13:50:22.833Z,10.30
2022-11-09T13:52:53.836Z,10.40
2022-11-09T13:55:23.430Z,10.40
2022-11-09T13:57:50.753Z,10.40
2022-11-09T14:00:23.504Z,10.40
2022-11-09T14:03:02.927Z,10.40
2022-11-09T14:05:31.568Z,10.40
2022-11-09T14:08:07.183Z,10.40
2022-11-09T14:10:50.456Z,10.30
2022-11-09T14:13:36.042Z,10.40
2022-11-09T14:16:26.599Z,10.40
2022-11-09T14:19:11.326Z,10.40
2022-11-09T14:21:46.210Z,10.40
2022-11-09T14:24:17.212Z,10.40
2022-11-09T14:27:04.187Z,10.40
2022-11-09T14:29:33.280Z,10.40
2022-11-09T14:32:22.842Z,10.40
2022-11-09T14:34:49.957Z,10.40
2022-11-09T14:37:17.357Z,10.40
2022-11-09T14:39:52.540Z,10.30
2022-11-09T14:42:21.405Z,10.30
2022-11-09T14:44:49.519Z,10.30
2022-11-09T14:47:19.862Z,10.30
2022-11-09T14:49:47.260Z,10.20
2022-11-09T14:52:20.706Z,10.20
2022-11-09T14:54:49.413Z,10.20
2022-11-09T14:57:17.229Z,10.20
2022-11-09T14:59:45.640Z,10.20
2022-11-09T15:02:15.463Z,10.20
2022-11-09T15:04:59.548Z,10.30
2022-11-09T15:07:30.730Z,10.30
2022-11-09T15:10:00.710Z,10.30
2022-11-09T15:12:29.672Z,10.30
2022-11-09T15:15:03.225Z,10.40
2022-11-09T15:17:33.375Z,10.40
2022-11-09T15:20:03.408Z,10.30
2022-11-09T15:23:00.796Z,10.30
2022-11-09T15:25:34.419Z,10.40
2022-11-09T15:28:12.812Z,10.30
2022-11-09T15:30:54.728Z,10.30
2022-11-09T15:33:29.811Z,10.40
2022-11-09T15:36:06.858Z,10.40
2022-11-09T15:38:38.425Z,10.40
2022-11-09T15:41:17.818Z,10.40
2022-11-09T15:43:44.829Z,10.40
2022-11-09T15:46:22.090Z,10.40
2022-11-09T15:48:49.161Z,10.40
2022-11-09T15:51:16.777Z,10.40
2022-11-09T15:53:43.880Z,10.40
2022-11-09T15:56:19.603Z,10.40
2022-11-09T15:58:49.317Z,10.40
2022-11-09T16:01:16.541Z,10.40
2022-11-09T16:03:43.480Z,10.40
2022-11-09T16:06:14.626Z,10.40
2022-11-09T16:08:41.715Z,10.40
2022-11-09T16:11:10.480Z,10.40
2022-11-09T16:13:37.735Z,10.40
2022-11-09T16:16:06.875Z,10.40
2022-11-09T16:18:34.516Z,10.40
2022-11-09T16:21:13.009Z,10.40
2022-11-09T16:23:39.970Z,10.40
2022-11-09T16:26:12.761Z,10.40
2022-11-09T16:28:40.361Z,10.40
2022-11-09T16:31:08.170Z,10.40
2022-11-09T16:33:35.695Z,10.40
2022-11-09T16:36:06.391Z,10.40
2022-11-09T16:38:40.771Z,10.40
2022-11-09T16:41:07.973Z,10.40
2022-11-09T16:43:37.929Z,10.40
2022-11-09T16:46:06.034Z,10.40
2022-11-09T16:48:34.146Z,10.50
2022-11-09T16:51:02.114Z,10.50
2022-11-09T16:53:29.483Z,10.50
2022-11-09T16:55:56.647Z,10.50
2022-11-09T16:58:23.820Z,10.50
2022-11-09T17:03:39.246Z,10.50
2022-11-09T17:06:10.968Z,10.50
2022-11-09T17:08:39.347Z,10.50
2022-11-09T17:11:18.095Z,10.50
2022-11-09T17:13:45.263Z,10.50
2022-11-09T17:16:13.851Z,10.60
2022-11-09T17:18:43.117Z,10.60
2022-11-09T17:21:14.780Z,10.60
2022-11-09T17:23:42.749Z,10.60
2022-11-09T17:26:10.368Z,10.60
2022-11-09T17:28:42.733Z,10.70
2022-11-09T17:31:16.596Z,10.70
2022-11-09T17:33:45.039Z,10.70
2022-11-09T17:36:15.431Z,10.70
2022-11-09T17:38:42.590Z,10.70
2022-11-09T17:41:15.960Z,10.70
2022-11-09T17:43:44.141Z,10.70
2022-11-09T17:46:17.518Z,10.80
2022-11-09T17:48:46.746Z,10.80
2022-11-09T17:51:15.437Z,10.80
2022-11-09T17:53:42.794Z,10.80
2022-11-09T17:56:11.122Z,10.80
2022-11-09T17:58:43.472Z,10.80
2022-11-09T18:01:15.266Z,10.80
2022-11-09T18:03:43.621Z,10.80
2022-11-09T18:06:17.447Z,10.70
2022-11-09T18:08:45.484Z,10.70
2022-11-09T18:11:14.172Z,10.70
2022-11-09T18:13:42.550Z,10.70
2022-11-09T18:16:17.762Z,10.70
2022-11-09T18:18:45.539Z,10.70
2022-11-09T18:21:19.256Z,10.80
2022-11-09T18:23:47.179Z,10.80
2022-11-09T18:26:14.497Z,10.80
2022-11-09T18:28:43.187Z,10.80
2022-11-09T18:31:12.738Z,10.80
2022-11-09T18:33:42.919Z,10.80
2022-11-09T18:36:19.017Z,10.80
2022-11-09T18:38:47.234Z,10.70
2022-11-09T18:41:18.408Z,10.70
2022-11-09T18:43:46.355Z,10.70
2022-11-09T18:46:16.283Z,10.70
2022-11-09T18:48:44.730Z,10.70
2022-11-09T18:51:12.745Z,10.70
2022-11-09T18:53:42.238Z,10.80
2022-11-09T18:56:23.816Z,10.80
2022-11-09T18:58:53.495Z,10.70
2022-11-09T19:01:23.456Z,10.70
2022-11-09T19:03:57.812Z,10.60
2022-11-09T19:06:28.052Z,10.60
2022-11-09T19:09:13.754Z,10.50
2022-11-09T19:11:41.298Z,10.60
2022-11-09T19:14:10.658Z,10.60
2022-11-09T19:16:37.997Z,10.60
2022-11-09T19:19:08.250Z,10.60
2022-11-09T19:21:43.092Z,10.50
2022-11-09T19:24:13.044Z,10.50
2022-11-09T19:26:40.343Z,10.50
2022-11-09T19:29:08.742Z,10.50
2022-11-09T19:31:36.511Z,10.50
2022-11-09T19:34:05.150Z,10.50
2022-11-09T19:36:33.988Z,10.50
2022-11-09T19:39:02.448Z,10.50
2022-11-09T19:41:29.857Z,10.50
2022-11-09T19:44:01.275Z,10.50
2022-11-09T19:46:31.501Z,10.40
2022-11-09T19:48:58.661Z,10.40
2022-11-09T19:51:26.302Z,10.40
2022-11-09T19:53:55.289Z,10.30
2022-11-09T19:56:24.492Z,10.30
2022-11-09T19:58:57.596Z,10.30
2022-11-09T20:01:25.616Z,10.30
2022-11-09T20:03:55.880Z,10.30
2022-11-09T20:06:24.260Z,10.30
2022-11-09T20:08:52.536Z,10.30
2022-11-09T20:11:40.223Z,10.30
2022-11-09T20:14:09.012Z,10.30
2022-11-09T20:16:38.000Z,10.30
2022-11-09T20:19:09.686Z,10.30
2022-11-09T20:21:37.633Z,10.20
2022-11-09T20:24:05.207Z,10.30
2022-11-09T20:26:32.475Z,10.20
2022-11-09T20:28:59.701Z,10.30
2022-11-09T20:31:27.158Z,10.30
2022-11-09T20:33:58.503Z,10.30
2022-11-09T20:36:25.764Z,10.30
2022-11-09T20:38:55.229Z,10.30
2022-11-09T20:41:25.355Z,10.40
2022-11-09T20:43:53.415Z,10.40
2022-11-09T20:46:22.836Z,10.40
2022-11-09T20:48:57.983Z,10.40
2022-11-09T20:51:28.758Z,10.40
2022-11-09T20:53:55.686Z,10.40
2022-11-09T20:56:22.834Z,10.40
2022-11-09T20:58:50.387Z,10.40
2022-11-09T21:01:21.130Z,10.40
2022-11-09T21:03:51.731Z,10.50
2022-11-09T21:06:21.087Z,10.50
2022-11-09T21:08:51.260Z,10.50
2022-11-09T21:11:19.914Z,10.50
2022-11-09T21:13:50.807Z,10.50
2022-11-09T21:16:19.527Z,10.50
2022-11-09T21:18:46.880Z,10.50
2022-11-09T21:21:16.897Z,10.60
2022-11-09T21:24:03.322Z,10.50
2022-11-09T21:26:49.233Z,10.50
2022-11-09T21:29:37.540Z,10.50
2022-11-09T21:32:06.595Z,10.60
2022-11-09T21:34:36.871Z,10.60
2022-11-09T21:37:04.930Z,10.60
2022-11-09T21:39:31.957Z,10.60
2022-11-09T21:41:59.231Z,10.70
2022-11-09T21:44:28.928Z,10.70
2022-11-09T21:46:55.953Z,10.70
2022-11-09T21:49:22.979Z,10.60
2022-11-09T21:51:49.853Z,10.70
2022-11-09T21:54:17.037Z,10.70
2022-11-09T21:56:43.916Z,10.70
2022-11-09T21:59:10.833Z,10.70
2022-11-09T22:01:37.725Z,10.80
2022-11-09T22:04:04.847Z,10.80
2022-11-09T22:06:31.855Z,10.70
2022-11-09T22:08:58.743Z,10.80
2022-11-09T22:11:45.553Z,10.80
2022-11-09T22:14:36.033Z,10.80
2022-11-09T22:17:04.318Z,10.80
2022-11-09T22:19:49.799Z,10.80
2022-11-09T22:22:16.955Z,10.70
2022-11-09T22:24:44.540Z,10.70
2022-11-09T22:27:11.483Z,10.70
2022-11-09T22:29:38.388Z,10.70
2022-11-09T22:32:05.835Z,10.70
2022-11-09T22:34:32.768Z,10.80
2022-11-09T22:36:59.631Z,10.70
2022-11-09T22:39:26.495Z,10.70
2022-11-09T22:41:53.284Z,10.60
2022-11-09T22:44:20.104Z,10.60
2022-11-09T22:46:48.697Z,10.60
2022-11-09T22:49:15.595Z,10.60
2022-11-09T22:51:42.423Z,10.60
2022-11-09T22:54:09.347Z,10.60
2022-11-09T22:56:36.141Z,10.70
2022-11-09T22:59:03.692Z,10.70
2022-11-09T23:01:30.704Z,10.70
2022-11-09T23:03:57.575Z,10.70
2022-11-09T23:06:24.480Z,10.70
2022-11-09T23:08:51.627Z,10.70
2022-11-09T23:11:20.727Z,10.70
2022-11-09T23:13:52.830Z,10.70
2022-11-09T23:16:20.329Z,10.80
2022-11-09T23:18:53.937Z,10.80
2022-11-09T23:21:30.145Z,10.80
2022-11-09T23:24:00.201Z,10.90
2022-11-09T23:26:28.317Z,10.90
2022-11-09T23:28:55.212Z,10.90
2022-11-09T23:31:26.966Z,10.90
2022-11-09T23:33:56.725Z,10.90
2022-11-09T23:36:25.210Z,10.90
2022-11-09T23:38:52.524Z,10.80
2022-11-09T23:41:20.013Z,10.80
2022-11-09T23:43:49.721Z,10.70
2022-11-09T23:46:17.418Z,10.70
2022-11-09T23:48:44.888Z,10.70
2022-11-09T23:51:12.118Z,10.70
2022-11-09T23:53:39.395Z,10.80
2022-11-09T23:56:09.307Z,10.80
2022-11-09T23:58:36.582Z,10.80
